Time;durP1;ratioP1;P1;durP2;ratioP2;P2;SDS_P1;SDS_P2;PMS_P1;PMS_P2;Temp;Humidity;BMP_temperature;BMP_pressure;BME280_temperature;BME280_humidity;BME280_pressure;Samples;Min_cycle;Max_cycle;Signal;HPM_P1;HPM_P2
2021/04/03 00:00:43;;;;;;;13.25;0.90;;;5.60;99.90;;;;;;6132165;23;20016;-78
2021/04/03 00:03:10;;;;;;;5.95;0.52;;;5.60;99.90;;;;;;6159186;23;20013;-78
2021/04/03 00:05:36;;;;;;;10.75;0.28;;;5.60;99.90;;;;;;6158919;23;20029;-78
2021/04/03 00:08:03;;;;;;;12.38;0.82;;;5.40;99.90;;;;;;6156870;23;20010;-77
2021/04/03 00:10:38;;;;;;;5.32;0.55;;;5.40;99.90;;;;;;6157353;23;19997;-78
2021/04/03 00:13:04;;;;;;;7.90;0.13;;;5.40;99.90;;;;;;6158137;23;20051;-78
2021/04/03 00:15:29;;;;;;;7.95;0.15;;;5.30;99.90;;;;;;6157321;23;20441;-78
2021/04/03 00:17:55;;;;;;;10.63;0.25;;;5.30;99.90;;;;;;6157494;23;20006;-78
2021/04/03 00:20:25;;;;;;;11.45;1.20;;;5.30;99.90;;;;;;6157513;23;20429;-78
2021/04/03 00:22:50;;;;;;;10.82;1.10;;;5.30;99.90;;;;;;6131232;23;20002;-78
2021/04/03 00:25:16;;;;;;;7.70;1.33;;;5.30;99.90;;;;;;6157459;23;20384;-78
2021/04/03 00:27:43;;;;;;;7.57;0.57;;;5.40;99.90;;;;;;6157004;23;20495;-78
2021/04/03 00:30:17;;;;;;;7.00;0.20;;;5.40;99.90;;;;;;6158670;23;20031;-81
2021/04/03 00:33:03;;;;;;;10.13;0.70;;;5.40;99.90;;;;;;6134940;23;20009;-79
2021/04/03 00:35:31;;;;;;;11.32;0.65;;;5.40;99.90;;;;;;6134954;23;20009;-79
2021/04/03 00:37:59;;;;;;;13.40;1.42;;;5.50;99.90;;;;;;6135862;23;20009;-79
2021/04/03 00:40:36;;;;;;;7.88;1.33;;;5.50;99.90;;;;;;6162432;23;20009;-78
2021/04/03 00:43:05;;;;;;;14.70;1.15;;;5.50;99.90;;;;;;6134947;23;20005;-78
2021/04/03 00:45:31;;;;;;;11.82;0.25;;;5.60;99.90;;;;;;6133391;23;20437;-78
2021/04/03 00:47:56;;;;;;;7.82;0.30;;;5.60;99.90;;;;;;6159832;23;20005;-78
2021/04/03 00:50:26;;;;;;;10.52;1.45;;;5.70;99.90;;;;;;6159340;23;20073;-79
2021/04/03 00:52:51;;;;;;;16.48;1.10;;;5.70;99.90;;;;;;6161014;23;20455;-79
2021/04/03 00:55:17;;;;;;;7.57;0.20;;;5.70;99.90;;;;;;6161565;23;20025;-80
2021/04/03 00:57:44;;;;;;;13.32;1.10;;;5.70;99.90;;;;;;6160857;23;20094;-79
2021/04/03 01:00:11;;;;;;;11.95;0.82;;;5.70;99.90;;;;;;6160786;23;20017;-79
2021/04/03 01:02:37;;;;;;;13.38;0.10;;;5.70;99.90;;;;;;6163050;23;20058;-81
2021/04/03 01:05:10;;;;;;;18.40;1.33;;;5.70;99.90;;;;;;6163227;23;20001;-79
2021/04/03 01:07:36;;;;;;;9.57;0.98;;;5.70;99.90;;;;;;6160444;23;20030;-78
2021/04/03 01:10:03;;;;;;;17.35;0.30;;;5.80;99.90;;;;;;6134386;23;20013;-80
2021/04/03 01:12:51;;;;;;;10.65;0.70;;;5.80;99.90;;;;;;6161471;23;20013;-78
2021/04/03 01:15:42;;;;;;;9.23;0.90;;;5.80;99.90;;;;;;6163219;23;19998;-80
2021/04/03 01:18:42;;;;;;;15.95;1.02;;;5.80;99.90;;;;;;6162542;23;20001;-78
2021/04/03 01:21:50;;;;;;;10.65;0.75;;;5.90;99.90;;;;;;6101165;23;20469;-77
2021/04/03 01:24:47;;;;;;;13.85;0.40;;;5.90;99.90;;;;;;6160042;23;20005;-78
2021/04/03 01:27:21;;;;;;;11.80;0.73;;;6.00;99.90;;;;;;6160632;23;20448;-78
2021/04/03 01:30:06;;;;;;;12.10;0.70;;;6.00;99.90;;;;;;6160914;23;20087;-78
2021/04/03 01:32:35;;;;;;;8.90;0.85;;;6.00;99.90;;;;;;6160456;23;20503;-80
2021/04/03 01:35:03;;;;;;;7.28;0.43;;;6.00;99.90;;;;;;6134929;23;20084;-80
2021/04/03 01:37:31;;;;;;;17.13;0.77;;;6.00;99.90;;;;;;6160348;23;20009;-78
2021/04/03 01:39:59;;;;;;;12.55;1.70;;;6.00;99.90;;;;;;6132691;23;20002;-78
2021/04/03 01:42:32;;;;;;;16.50;0.43;;;6.00;99.90;;;;;;6158202;23;20002;-78
2021/04/03 01:45:00;;;;;;;11.30;0.93;;;6.10;99.90;;;;;;6156670;23;20092;-78
2021/04/03 01:47:29;;;;;;;9.07;0.57;;;6.10;99.90;;;;;;6132001;23;20084;-78
2021/04/03 01:49:56;;;;;;;10.30;1.20;;;6.10;99.90;;;;;;6157631;23;20233;-78
2021/04/03 01:52:28;;;;;;;20.80;1.52;;;6.00;99.90;;;;;;6157619;23;20005;-77
2021/04/03 01:54:59;;;;;;;15.40;0.77;;;6.10;99.90;;;;;;6157023;23;20005;-77
2021/04/03 01:57:29;;;;;;;14.35;0.70;;;6.10;99.90;;;;;;6131218;23;20001;-78
2021/04/03 01:59:55;;;;;;;10.98;0.45;;;6.10;99.90;;;;;;6131336;23;20009;-78
2021/04/03 02:02:21;;;;;;;14.23;0.50;;;6.10;99.90;;;;;;6157487;23;20009;-78
2021/04/03 02:04:48;;;;;;;16.50;0.73;;;6.10;99.90;;;;;;6157685;23;20009;-78
2021/04/03 02:07:17;;;;;;;17.25;0.90;;;6.10;99.90;;;;;;6130908;23;20001;-78
2021/04/03 02:09:49;;;;;;;13.95;0.40;;;6.10;99.90;;;;;;6157381;23;20333;-78
2021/04/03 02:12:15;;;;;;;14.57;1.05;;;6.10;99.90;;;;;;6157258;23;20377;-78
2021/04/03 02:14:43;;;;;;;9.38;0.63;;;6.20;99.90;;;;;;6158134;23;20033;-77
2021/04/03 02:17:10;;;;;;;10.05;1.55;;;6.10;99.90;;;;;;6160814;23;20314;-79
2021/04/03 02:19:39;;;;;;;12.60;1.00;;;6.10;99.90;;;;;;6160538;23;20314;-77
2021/04/03 02:22:05;;;;;;;12.43;1.27;;;6.20;99.90;;;;;;6134161;23;20009;-80
2021/04/03 02:24:31;;;;;;;8.52;0.28;;;6.20;99.90;;;;;;6134208;23;20006;-79
2021/04/03 02:26:57;;;;;;;10.93;0.25;;;6.20;99.90;;;;;;6158511;23;20010;-78
2021/04/03 02:29:23;;;;;;;17.55;0.82;;;6.20;99.90;;;;;;6159885;23;20097;-79
2021/04/03 02:31:50;;;;;;;7.25;0.88;;;6.20;99.90;;;;;;6133652;23;20059;-80
2021/04/03 02:34:15;;;;;;;7.20;0.10;;;6.30;99.90;;;;;;6135609;23;20016;-79
2021/04/03 02:36:41;;;;;;;17.98;1.98;;;6.30;99.90;;;;;;6134629;23;20010;-78
2021/04/03 02:39:07;;;;;;;16.05;0.80;;;6.30;99.90;;;;;;6134635;23;20060;-77
2021/04/03 02:41:48;;;;;;;12.65;0.40;;;6.30;99.90;;;;;;6159834;23;20076;-78
2021/04/03 02:44:29;;;;;;;14.95;1.17;;;6.30;99.90;;;;;;6133158;23;20345;-78
2021/04/03 02:47:10;;;;;;;13.88;0.55;;;6.30;99.90;;;;;;6158960;23;20005;-79
2021/04/03 02:49:48;;;;;;;15.65;0.98;;;6.30;99.90;;;;;;6158053;23;20421;-79
2021/04/03 02:52:15;;;;;;;10.00;0.38;;;6.20;99.90;;;;;;6159802;23;20001;-78
2021/04/03 02:54:41;;;;;;;6.75;0.85;;;6.20;99.90;;;;;;6161145;23;20001;-78
2021/04/03 02:57:10;;;;;;;8.05;0.40;;;6.30;99.90;;;;;;6159363;23;20001;-79
2021/04/03 02:59:38;;;;;;;16.35;0.45;;;6.20;99.90;;;;;;6159302;23;20060;-80
2021/04/03 03:02:05;;;;;;;8.27;0.70;;;6.30;99.90;;;;;;6160373;23;20001;-80
2021/04/03 03:04:31;;;;;;;14.65;1.15;;;6.30;99.90;;;;;;6160022;23;20432;-79
2021/04/03 03:06:58;;;;;;;13.90;0.57;;;6.30;99.90;;;;;;6135498;23;20006;-79
2021/04/03 03:09:26;;;;;;;16.20;0.80;;;6.30;99.90;;;;;;6132046;23;20425;-78
2021/04/03 03:11:57;;;;;;;10.18;1.80;;;6.30;99.90;;;;;;6133600;23;20504;-78
2021/04/03 03:14:23;;;;;;;9.68;0.60;;;6.30;99.90;;;;;;6161127;23;20303;-78
2021/04/03 03:16:51;;;;;;;12.85;0.98;;;6.40;99.90;;;;;;6131645;23;20009;-77
2021/04/03 03:19:18;;;;;;;14.77;1.20;;;6.30;99.90;;;;;;6133891;23;20009;-78
2021/04/03 03:21:43;;;;;;;14.70;1.17;;;6.30;99.90;;;;;;6160645;23;20012;-77
2021/04/03 03:24:11;;;;;;;8.60;0.52;;;6.30;99.90;;;;;;6132270;23;20409;-78
2021/04/03 03:26:39;;;;;;;23.63;1.77;;;6.30;99.90;;;;;;6132383;23;20032;-77
2021/04/03 03:29:07;;;;;;;13.93;1.35;;;6.30;99.90;;;;;;6157059;23;19998;-79
2021/04/03 03:31:33;;;;;;;19.58;1.10;;;6.30;99.90;;;;;;6158050;23;20009;-78
2021/04/03 03:34:00;;;;;;;13.20;2.47;;;6.20;99.90;;;;;;6161052;23;20017;-79
2021/04/03 03:36:29;;;;;;;13.43;1.02;;;6.30;99.90;;;;;;6159211;23;20430;-77
2021/04/03 03:38:56;;;;;;;10.18;0.95;;;6.40;99.90;;;;;;6159658;23;20337;-77
2021/04/03 03:41:24;;;;;;;19.63;1.77;;;6.30;99.90;;;;;;6158315;23;20010;-77
2021/04/03 03:43:50;;;;;;;13.43;1.25;;;7.70;99.90;;;;;;6132251;23;20349;-77
2021/04/03 03:46:16;;;;;;;18.00;0.65;;;6.40;99.90;;;;;;6132970;23;20549;-77
2021/04/03 03:48:41;;;;;;;18.80;1.15;;;6.40;99.90;;;;;;6157640;23;20009;-77
2021/04/03 03:51:07;;;;;;;19.92;1.83;;;9.50;99.90;;;;;;6160547;23;20006;-80
2021/04/03 03:53:33;;;;;;;16.35;0.93;;;5.90;99.90;;;;;;6132006;23;20039;-77
2021/04/03 03:55:59;;;;;;;14.38;0.93;;;6.30;99.90;;;;;;6160439;23;19997;-77
2021/04/03 03:58:25;;;;;;;14.05;1.13;;;6.30;99.90;;;;;;6156213;23;20016;-78
2021/04/03 04:00:50;;;;;;;16.60;0.57;;;6.30;99.90;;;;;;6129912;23;20010;-77
2021/04/03 04:03:16;;;;;;;18.83;1.02;;;6.30;99.90;;;;;;6130076;23;20001;-78
2021/04/03 04:05:42;;;;;;;16.05;1.38;;;6.40;99.90;;;;;;6156393;23;20008;-78
2021/04/03 04:08:07;;;;;;;17.77;1.85;;;6.30;99.90;;;;;;6156158;23;20040;-77
2021/04/03 04:10:33;;;;;;;18.30;2.50;;;6.30;99.90;;;;;;6156063;23;19998;-77
2021/04/03 04:13:01;;;;;;;23.13;2.33;;;6.30;99.90;;;;;;6129757;23;20417;-77
2021/04/03 04:15:26;;;;;;;22.05;1.92;;;6.30;99.90;;;;;;6131178;23;20001;-79
2021/04/03 04:17:52;;;;;;;16.40;1.73;;;6.20;99.90;;;;;;6132246;23;20019;-78
2021/04/03 04:20:17;;;;;;;12.82;1.35;;;6.20;99.90;;;;;;6155781;23;20006;-77
2021/04/03 04:22:43;;;;;;;17.95;1.13;;;6.20;99.90;;;;;;6157544;23;20005;-79
2021/04/03 04:25:09;;;;;;;18.23;1.45;;;6.20;99.90;;;;;;6130315;23;20006;-78
2021/04/03 04:27:35;;;;;;;13.88;1.83;;;6.20;99.90;;;;;;6155714;23;20002;-77
2021/04/03 04:30:09;;;;;;;16.17;1.10;;;6.20;99.90;;;;;;6155675;23;20004;-77
2021/04/03 04:32:41;;;;;;;18.63;1.33;;;6.20;99.90;;;;;;6156384;23;20491;-78
2021/04/03 04:35:09;;;;;;;20.67;2.13;;;6.10;99.90;;;;;;6158969;23;20001;-76
2021/04/03 04:37:36;;;;;;;16.13;1.70;;;6.10;99.90;;;;;;6158109;23;20436;-77
2021/04/03 04:40:04;;;;;;;23.13;2.75;;;6.10;99.90;;;;;;6157311;23;20009;-77
2021/04/03 04:42:29;;;;;;;9.85;0.95;;;6.20;99.90;;;;;;6159127;23;20002;-77
2021/04/03 04:44:55;;;;;;;14.60;1.58;;;6.20;99.90;;;;;;6133935;23;20001;-77
2021/04/03 04:47:33;;;;;;;18.33;1.23;;;6.20;99.90;;;;;;6108136;23;20097;-78
2021/04/03 04:50:08;;;;;;;20.70;1.67;;;6.10;99.90;;;;;;6158292;23;20020;-78
2021/04/03 04:52:34;;;;;;;9.40;1.00;;;6.10;99.90;;;;;;6157955;23;20373;-78
2021/04/03 04:55:00;;;;;;;13.75;1.15;;;6.00;99.90;;;;;;6158519;23;20009;-78
2021/04/03 04:57:26;;;;;;;17.20;2.47;;;6.00;99.90;;;;;;6157902;23;20036;-78
2021/04/03 04:59:52;;;;;;;19.00;1.08;;;5.90;99.90;;;;;;6158511;23;20037;-78
2021/04/03 05:02:18;;;;;;;32.45;2.55;;;5.90;99.90;;;;;;6131440;23;20012;-78
2021/04/03 05:04:43;;;;;;;11.93;0.65;;;5.80;99.90;;;;;;6157695;23;20005;-77
2021/04/03 05:07:09;;;;;;;12.80;1.40;;;5.70;99.90;;;;;;6131542;23;20009;-78
2021/04/03 05:09:34;;;;;;;15.45;1.02;;;5.60;99.90;;;;;;6157876;23;20025;-78
2021/04/03 05:12:01;;;;;;;17.33;0.55;;;5.50;99.90;;;;;;6131605;23;20009;-78
2021/04/03 05:14:29;;;;;;;14.07;0.98;;;5.40;99.90;;;;;;6158333;23;20002;-77
2021/04/03 05:16:54;;;;;;;23.67;0.75;;;5.30;99.90;;;;;;6131758;23;20076;-78
2021/04/03 05:19:20;;;;;;;21.55;2.17;;;5.30;99.90;;;;;;6132605;23;20425;-79
2021/04/03 05:21:45;;;;;;;16.83;1.50;;;5.20;99.90;;;;;;6135000;23;20006;-79
2021/04/03 05:24:11;;;;;;;16.55;0.70;;;5.20;99.90;;;;;;6160322;23;20001;-80
2021/04/03 05:26:36;;;;;;;16.60;1.20;;;5.10;99.90;;;;;;6162321;23;20457;-80
2021/04/03 05:29:02;;;;;;;20.73;2.25;;;5.10;99.90;;;;;;6136061;23;20028;-79
2021/04/03 05:31:28;;;;;;;17.58;1.73;;;5.10;99.90;;;;;;6162890;23;20073;-80
2021/04/03 05:33:53;;;;;;;19.38;2.25;;;4.90;99.90;;;;;;6164506;23;20429;-80
2021/04/03 05:36:19;;;;;;;19.92;2.40;;;4.90;99.90;;;;;;6163397;23;19997;-79
2021/04/03 05:38:44;;;;;;;24.70;1.25;;;4.90;99.90;;;;;;6137237;23;20388;-80
2021/04/03 05:41:10;;;;;;;16.38;1.63;;;4.90;99.90;;;;;;6135404;23;20061;-79
2021/04/03 05:43:37;;;;;;;21.23;0.95;;;4.90;99.90;;;;;;6161741;23;20006;-80
2021/04/03 05:46:03;;;;;;;14.93;1.67;;;4.80;99.90;;;;;;6160249;23;20017;-79
2021/04/03 05:48:30;;;;;;;17.55;0.98;;;4.80;99.90;;;;;;6163128;23;20001;-80
2021/04/03 05:50:58;;;;;;;17.63;0.63;;;4.80;99.90;;;;;;6161939;23;20002;-80
2021/04/03 05:53:24;;;;;;;28.08;1.35;;;4.80;99.90;;;;;;6135262;23;20001;-80
2021/04/03 05:55:54;;;;;;;21.40;2.15;;;4.80;99.90;;;;;;6132590;23;20084;-77
2021/04/03 05:58:20;;;;;;;19.23;1.95;;;4.80;99.90;;;;;;6158728;23;20429;-78
2021/04/03 06:00:47;;;;;;;17.73;1.63;;;4.80;99.90;;;;;;6159315;23;20055;-79
2021/04/03 06:03:15;;;;;;;16.48;0.82;;;4.90;99.90;;;;;;6159383;23;20352;-77
2021/04/03 06:05:43;;;;;;;16.52;1.77;;;4.90;99.90;;;;;;6158508;23;20002;-77
2021/04/03 06:08:09;;;;;;;18.15;1.20;;;5.00;99.90;;;;;;6159527;23;20012;-77
2021/04/03 06:10:35;;;;;;;16.67;0.95;;;5.10;99.90;;;;;;6158487;23;20014;-78
2021/04/03 06:13:01;;;;;;;21.55;2.03;;;5.20;99.90;;;;;;6158154;23;20004;-78
2021/04/03 06:15:27;;;;;;;18.40;1.45;;;5.30;99.90;;;;;;6158185;23;20066;-77
2021/04/03 06:17:57;;;;;;;23.55;1.92;;;5.40;99.90;;;;;;6158626;23;20333;-78
2021/04/03 06:20:48;;;;;;;16.58;1.63;;;5.60;99.90;;;;;;6158583;23;20009;-77
2021/04/03 06:23:29;;;;;;;26.63;1.35;;;5.70;99.90;;;;;;6127675;23;20065;-78
2021/04/03 06:25:57;;;;;;;28.98;2.22;;;5.80;99.90;;;;;;6133510;23;20001;-79
2021/04/03 06:28:33;;;;;;;15.43;1.02;;;6.00;99.90;;;;;;6160130;23;20016;-79
2021/04/03 06:31:12;;;;;;;10.57;1.48;;;6.10;99.90;;;;;;6158090;23;20052;-78
2021/04/03 06:33:38;;;;;;;11.40;1.25;;;6.10;99.90;;;;;;6160605;23;20068;-77
2021/04/03 06:36:11;;;;;;;13.18;1.40;;;6.20;99.90;;;;;;6133479;23;20319;-79
2021/04/03 06:38:38;;;;;;;17.55;1.90;;;6.30;99.90;;;;;;6158954;23;20002;-80
2021/04/03 06:41:23;;;;;;;16.90;1.30;;;6.90;99.90;;;;;;6158885;23;19999;-76
2021/04/03 06:44:09;;;;;;;19.48;1.25;;;6.50;99.90;;;;;;6131949;23;20434;-76
2021/04/03 06:46:37;;;;;;;16.58;1.40;;;6.50;99.90;;;;;;6158216;23;20006;-79
2021/04/03 06:49:04;;;;;;;18.63;1.80;;;6.50;99.90;;;;;;6159886;23;20013;-78
2021/04/03 06:51:30;;;;;;;12.35;0.68;;;6.50;99.90;;;;;;6131663;23;20006;-76
2021/04/03 06:53:57;;;;;;;25.45;2.03;;;6.60;99.90;;;;;;6132307;23;20008;-76
2021/04/03 06:56:36;;;;;;;17.60;2.17;;;6.60;99.90;;;;;;6159384;23;20080;-78
2021/04/03 06:59:02;;;;;;;14.07;0.90;;;6.60;99.90;;;;;;6133858;23;20005;-76
2021/04/03 07:01:50;;;;;;;21.85;1.70;;;6.60;99.90;;;;;;6158612;23;20004;-78
2021/04/03 07:04:50;;;;;;;26.30;1.42;;;6.60;99.90;;;;;;6158022;23;20001;-79
2021/04/03 07:07:17;;;;;;;17.73;1.35;;;6.60;99.90;;;;;;6129097;23;20006;-78
2021/04/03 07:09:44;;;;;;;13.77;1.58;;;6.70;99.90;;;;;;6159292;23;20008;-77
2021/04/03 07:12:13;;;;;;;23.67;3.55;;;6.70;99.90;;;;;;6162152;23;19998;-79
2021/04/03 07:14:40;;;;;;;14.43;0.68;;;6.80;99.90;;;;;;6161717;23;20081;-79
2021/04/03 07:17:07;;;;;;;22.42;2.63;;;6.80;99.90;;;;;;6133322;23;20002;-77
2021/04/03 07:19:37;;;;;;;15.18;1.65;;;6.90;99.90;;;;;;6157491;23;20073;-78
2021/04/03 07:22:03;;;;;;;13.00;0.98;;;7.00;99.90;;;;;;6132054;23;20018;-78
2021/04/03 07:24:30;;;;;;;17.00;1.45;;;7.10;99.90;;;;;;6133243;23;20008;-77
2021/04/03 07:26:57;;;;;;;15.45;1.70;;;7.20;99.90;;;;;;6132580;23;20337;-78
2021/04/03 07:29:49;;;;;;;15.63;1.63;;;7.40;99.90;;;;;;6157890;23;20036;-78
2021/04/03 07:32:41;;;;;;;12.82;1.70;;;7.50;99.90;;;;;;6133070;23;20008;-79
2021/04/03 07:35:24;;;;;;;8.35;0.75;;;7.60;99.90;;;;;;6132474;23;20006;-77
2021/04/03 07:37:53;;;;;;;21.27;1.35;;;7.60;99.90;;;;;;6158436;23;20001;-78
2021/04/03 07:40:24;;;;;;;15.45;0.75;;;7.70;99.90;;;;;;6158744;23;20006;-78
2021/04/03 07:42:50;;;;;;;20.08;1.63;;;7.90;99.90;;;;;;6160038;23;20060;-78
2021/04/03 07:45:31;;;;;;;15.75;2.30;;;8.00;99.90;;;;;;6158681;23;20324;-78
2021/04/03 07:47:57;;;;;;;13.80;0.88;;;8.00;99.90;;;;;;6133923;23;20013;-80
2021/04/03 07:50:47;;;;;;;12.52;1.30;;;8.10;99.90;;;;;;6158587;23;20020;-78
2021/04/03 07:53:31;;;;;;;11.77;1.40;;;8.10;99.90;;;;;;6161958;23;20001;-78
2021/04/03 07:55:56;;;;;;;12.95;0.73;;;8.10;99.90;;;;;;6156287;23;20385;-76
2021/04/03 07:58:22;;;;;;;13.45;1.67;;;8.10;99.90;;;;;;6156322;23;20005;-76
2021/04/03 08:00:49;;;;;;;15.48;1.35;;;8.10;99.90;;;;;;6156921;23;20014;-76
2021/04/03 08:03:27;;;;;;;15.60;1.20;;;8.10;99.90;;;;;;6156824;23;20037;-76
2021/04/03 08:06:09;;;;;;;11.63;1.35;;;8.10;99.90;;;;;;6130347;23;20444;-76
2021/04/03 08:08:40;;;;;;;15.45;0.57;;;8.20;99.90;;;;;;6130354;23;20009;-76
2021/04/03 08:11:10;;;;;;;8.57;0.70;;;8.30;99.90;;;;;;6156097;23;20333;-77
2021/04/03 08:13:38;;;;;;;12.75;0.65;;;8.40;99.90;;;;;;6156633;23;20002;-77
2021/04/03 08:16:06;;;;;;;16.73;1.05;;;8.60;99.90;;;;;;6156276;23;20056;-77
2021/04/03 08:18:33;;;;;;;16.92;1.73;;;8.70;99.90;;;;;;6156514;23;20013;-76
2021/04/03 08:20:59;;;;;;;17.30;1.42;;;9.00;99.90;;;;;;6156761;23;20393;-76
2021/04/03 08:23:36;;;;;;;21.48;1.92;;;9.10;99.20;;;;;;6156463;23;20006;-76
2021/04/03 08:26:10;;;;;;;15.70;1.20;;;9.20;99.90;;;;;;6133998;23;20001;-78
2021/04/03 08:29:33;;;;;;;22.88;3.15;;;9.30;96.60;;;;;;6157684;23;20006;-80
2021/04/03 08:32:05;;;;;;;16.75;1.08;;;9.40;96.20;;;;;;6103843;23;20076;-77
2021/04/03 08:34:32;;;;;;;15.50;1.90;;;9.50;95.60;;;;;;6160497;23;20017;-79
2021/04/03 08:36:58;;;;;;;10.77;0.68;;;9.40;94.90;;;;;;6159941;23;20005;-80
2021/04/03 08:39:26;;;;;;;14.55;1.52;;;9.30;95.90;;;;;;6160047;23;20048;-78
2021/04/03 08:41:54;;;;;;;11.00;0.97;;;9.20;94.70;;;;;;6134245;23;20008;-80
2021/04/03 08:44:28;;;;;;;17.05;1.60;;;9.10;95.60;;;;;;6132582;23;20233;-79
2021/04/03 08:47:00;;;;;;;18.73;2.08;;;9.20;95.50;;;;;;6159078;23;20029;-80
2021/04/03 08:49:34;;;;;;;11.23;1.45;;;9.30;92.80;;;;;;6160828;23;20017;-77
2021/04/03 08:52:04;;;;;;;11.57;0.73;;;9.50;92.70;;;;;;6133100;23;20468;-77
2021/04/03 08:54:38;;;;;;;16.75;0.55;;;9.70;91.10;;;;;;6133047;23;20021;-80
2021/04/03 08:57:20;;;;;;;12.68;1.83;;;9.70;91.40;;;;;;6160826;23;20061;-79
2021/04/03 08:59:46;;;;;;;16.20;2.35;;;9.60;90.80;;;;;;6133411;23;20088;-80
2021/04/03 09:02:12;;;;;;;15.63;1.92;;;9.50;91.60;;;;;;6159486;23;20333;-79
2021/04/03 09:04:38;;;;;;;16.92;2.15;;;9.50;92.60;;;;;;6133208;23;20067;-79
2021/04/03 09:07:04;;;;;;;8.65;0.77;;;9.50;91.90;;;;;;6135131;23;20076;-79
2021/04/03 09:09:29;;;;;;;12.68;0.95;;;9.70;91.90;;;;;;6132378;23;20009;-78
2021/04/03 09:12:03;;;;;;;12.35;0.82;;;10.00;91.00;;;;;;6159276;23;20133;-80
2021/04/03 09:14:50;;;;;;;18.27;0.68;;;10.20;91.80;;;;;;6136438;23;20429;-79
2021/04/03 09:17:24;;;;;;;7.15;0.40;;;10.20;87.30;;;;;;6160443;23;20029;-77
2021/04/03 09:19:51;;;;;;;12.93;1.60;;;10.20;85.70;;;;;;6160501;23;20002;-79
2021/04/03 09:22:18;;;;;;;10.75;1.20;;;10.30;87.70;;;;;;6135377;23;20460;-80
2021/04/03 09:24:46;;;;;;;7.13;0.80;;;10.40;83.60;;;;;;6162621;23;20032;-80
2021/04/03 09:27:22;;;;;;;17.52;1.70;;;10.50;84.00;;;;;;6157084;23;20060;-75
2021/04/03 09:30:16;;;;;;;14.27;1.08;;;10.70;81.30;;;;;;6130982;23;20005;-74
2021/04/03 09:32:47;;;;;;;11.38;0.65;;;10.80;81.60;;;;;;6157429;23;20009;-74
2021/04/03 09:35:21;;;;;;;8.95;0.93;;;10.80;81.70;;;;;;6156982;23;20052;-74
2021/04/03 09:38:03;;;;;;;9.68;0.60;;;10.70;80.20;;;;;;6131909;23;20009;-73
2021/04/03 09:40:39;;;;;;;16.27;0.65;;;10.70;81.10;;;;;;6158205;23;20344;-74
2021/04/03 09:43:05;;;;;;;10.45;1.23;;;10.50;81.70;;;;;;6158129;23;20088;-74
2021/04/03 09:45:31;;;;;;;14.30;1.55;;;10.50;82.20;;;;;;6157609;23;20388;-76
2021/04/03 09:48:00;;;;;;;15.77;0.75;;;10.50;83.10;;;;;;6157716;23;20056;-75
2021/04/03 09:50:26;;;;;;;11.20;1.17;;;10.40;83.80;;;;;;6157850;23;19998;-74
2021/04/03 09:52:55;;;;;;;11.23;0.80;;;10.50;81.20;;;;;;6158167;23;19998;-76
2021/04/03 09:55:21;;;;;;;;;;;10.60;83.10;;;;;;6131837;23;20491;-78
2021/04/03 09:57:47;;;;;;;10.52;1.80;;;10.60;81.00;;;;;;6131226;23;19900;-74
2021/04/03 10:00:13;;;;;;;20.38;2.00;;;10.80;81.50;;;;;;6157746;23;20001;-75
2021/04/03 10:02:39;;;;;;;9.63;1.35;;;11.10;81.10;;;;;;6131244;23;20349;-74
2021/04/03 10:05:05;;;;;;;15.75;1.55;;;11.40;77.00;;;;;;6157554;23;20001;-76
2021/04/03 10:07:31;;;;;;;6.75;0.57;;;11.60;78.10;;;;;;6157470;23;20017;-74
2021/04/03 10:09:59;;;;;;;12.90;0.43;;;11.70;76.50;;;;;;6131282;23;20006;-74
2021/04/03 10:12:25;;;;;;;11.90;2.10;;;11.70;73.70;;;;;;6157462;23;20345;-75
2021/04/03 10:14:50;;;;;;;14.05;1.95;;;11.50;74.00;;;;;;6131127;23;20009;-78
2021/04/03 10:17:16;;;;;;;13.30;0.57;;;11.30;74.90;;;;;;6157878;23;20137;-75
2021/04/03 10:19:52;;;;;;;16.17;0.68;;;11.20;73.90;;;;;;6159024;23;20002;-75
2021/04/03 10:22:18;;;;;;;16.13;1.77;;;11.20;74.70;;;;;;6132458;23;20001;-76
2021/04/03 10:24:43;;;;;;;10.75;1.70;;;11.20;71.90;;;;;;6131850;23;20017;-75
2021/04/03 10:27:09;;;;;;;13.07;1.60;;;15.20;75.00;;;;;;6158081;23;20022;-73
2021/04/03 10:29:35;;;;;;;17.17;2.00;;;10.60;74.10;;;;;;6132130;23;19997;-75
2021/04/03 10:32:00;;;;;;;10.77;1.30;;;10.90;75.50;;;;;;6131712;23;20085;-75
2021/04/03 10:34:26;;;;;;;14.75;1.13;;;11.10;75.60;;;;;;6130829;23;20009;-75
2021/04/03 10:36:51;;;;;;;21.35;0.95;;;11.20;75.90;;;;;;6156838;23;20006;-75
2021/04/03 10:39:17;;;;;;;14.95;0.80;;;11.20;75.30;;;;;;6157641;23;20064;-79
2021/04/03 10:41:43;;;;;;;10.23;0.55;;;11.20;73.90;;;;;;6160041;23;20080;-79
2021/04/03 10:44:08;;;;;;;16.88;1.10;;;11.30;76.20;;;;;;6160555;23;20001;-79
2021/04/03 10:46:34;;;;;;;13.68;0.35;;;11.40;72.10;;;;;;6133345;23;19998;-77
2021/04/03 10:49:00;;;;;;;13.70;1.20;;;11.40;74.10;;;;;;6156833;23;20005;-74
2021/04/03 10:51:25;;;;;;;7.85;0.35;;;11.50;73.80;;;;;;6157641;23;20069;-74
2021/04/03 10:53:51;;;;;;;9.90;0.25;;;12.00;73.30;;;;;;6130485;23;20005;-74
2021/04/03 10:56:18;;;;;;;9.05;0.82;;;12.30;69.90;;;;;;6158189;23;20068;-76
2021/04/03 10:58:45;;;;;;;9.05;0.57;;;12.40;67.60;;;;;;6131310;23;20394;-76
2021/04/03 11:01:12;;;;;;;12.35;0.17;;;12.30;68.10;;;;;;6131674;23;20002;-77
2021/04/03 11:03:41;;;;;;;8.52;0.25;;;12.10;67.10;;;;;;6157890;23;20001;-76
2021/04/03 11:06:07;;;;;;;15.55;0.68;;;11.70;66.50;;;;;;6130623;23;20087;-76
2021/04/03 11:08:33;;;;;;;11.00;1.27;;;11.40;69.90;;;;;;6157517;23;20029;-76
2021/04/03 11:10:59;;;;;;;11.20;1.50;;;11.50;70.10;;;;;;6156956;23;19997;-74
2021/04/03 11:13:24;;;;;;;10.60;0.63;;;11.70;68.00;;;;;;6130470;23;20005;-77
2021/04/03 11:15:50;;;;;;;7.82;0.80;;;11.70;68.20;;;;;;6159416;23;20052;-76
2021/04/03 11:18:17;;;;;;;11.65;1.75;;;11.60;66.50;;;;;;6130554;23;20001;-74
2021/04/03 11:20:42;;;;;;;14.02;0.52;;;11.70;69.40;;;;;;6157643;23;20073;-76
2021/04/03 11:23:08;;;;;;;10.32;0.57;;;11.80;69.50;;;;;;6156347;23;20380;-76
2021/04/03 11:25:33;;;;;;;7.85;0.40;;;12.30;70.80;;;;;;6156213;23;20024;-74
2021/04/03 11:28:00;;;;;;;6.15;0.40;;;12.80;66.60;;;;;;6156234;23;20034;-76
2021/04/03 11:30:27;;;;;;;8.48;0.30;;;13.00;66.50;;;;;;6130012;23;20429;-71
2021/04/03 11:32:53;;;;;;;14.05;1.00;;;13.30;65.90;;;;;;6156384;23;19997;-73
2021/04/03 11:35:20;;;;;;;10.45;0.88;;;13.30;64.50;;;;;;6156353;23;20005;-73
2021/04/03 11:37:47;;;;;;;11.07;0.67;;;13.40;63.90;;;;;;6130152;23;20016;-74
2021/04/03 11:40:15;;;;;;;11.30;0.90;;;13.40;61.30;;;;;;6156931;23;20080;-74
2021/04/03 11:42:45;;;;;;;6.70;0.47;;;13.50;62.90;;;;;;6156713;23;20001;-74
2021/04/03 11:45:14;;;;;;;7.85;0.68;;;13.50;63.50;;;;;;6156687;23;20005;-75
2021/04/03 11:47:41;;;;;;;9.48;1.05;;;13.70;62.70;;;;;;6129753;23;20009;-74
2021/04/03 11:50:08;;;;;;;7.93;0.40;;;14.00;60.70;;;;;;6129554;23;20013;-73
2021/04/03 11:52:35;;;;;;;8.02;0.32;;;13.80;59.80;;;;;;6130128;23;20001;-74
2021/04/03 11:55:01;;;;;;;6.32;0.80;;;13.70;59.60;;;;;;6155857;23;19998;-76
2021/04/03 11:57:33;;;;;;;9.75;0.85;;;13.80;62.50;;;;;;6156587;23;20376;-74
2021/04/03 11:59:59;;;;;;;10.50;0.95;;;14.10;60.60;;;;;;6130529;23;20010;-75
2021/04/03 12:02:24;;;;;;;6.28;0.30;;;14.10;58.30;;;;;;6156993;23;20033;-75
2021/04/03 12:04:54;;;;;;;11.18;0.95;;;13.80;57.80;;;;;;6156721;23;20009;-78
2021/04/03 12:07:20;;;;;;;10.40;1.38;;;13.50;58.80;;;;;;6132137;23;20010;-78
2021/04/03 12:09:45;;;;;;;6.18;0.47;;;13.30;60.00;;;;;;6159301;23;20005;-79
2021/04/03 12:12:11;;;;;;;9.93;0.93;;;13.60;57.80;;;;;;6133490;23;20013;-79
2021/04/03 12:14:37;;;;;;;6.68;0.90;;;13.90;57.40;;;;;;6158824;23;20002;-77
2021/04/03 12:17:02;;;;;;;5.63;0.40;;;14.30;57.70;;;;;;6160116;23;20006;-78
2021/04/03 12:19:28;;;;;;;6.55;0.68;;;14.70;57.10;;;;;;6161019;23;20001;-78
2021/04/03 12:21:54;;;;;;;13.88;1.95;;;15.10;56.90;;;;;;6160857;23;20013;-75
2021/04/03 12:24:19;;;;;;;9.27;0.50;;;15.20;54.80;;;;;;6132094;23;20084;-78
2021/04/03 12:26:45;;;;;;;8.70;0.80;;;15.10;52.50;;;;;;6132088;23;20009;-77
2021/04/03 12:29:11;;;;;;;8.75;0.35;;;14.90;53.30;;;;;;6130788;23;20453;-77
2021/04/03 12:31:36;;;;;;;9.75;0.60;;;14.70;57.50;;;;;;6157158;23;20030;-76
2021/04/03 12:34:02;;;;;;;3.45;0.30;;;14.70;54.50;;;;;;6157930;23;20005;-77
2021/04/03 12:36:27;;;;;;;9.60;0.77;;;14.60;54.90;;;;;;6157036;23;20081;-77
2021/04/03 12:38:53;;;;;;;9.95;0.70;;;14.20;55.80;;;;;;6131434;23;20009;-76
2021/04/03 12:41:19;;;;;;;10.88;0.20;;;13.90;56.80;;;;;;6157041;23;20385;-77
2021/04/03 12:43:44;;;;;;;12.20;0.38;;;14.00;58.20;;;;;;6131242;23;20313;-77
2021/04/03 12:46:10;;;;;;;7.55;1.50;;;14.20;56.10;;;;;;6157519;23;20467;-77
2021/04/03 12:48:36;;;;;;;11.15;0.73;;;14.40;57.20;;;;;;6131029;23;20006;-76
2021/04/03 12:51:03;;;;;;;5.57;0.68;;;14.90;56.40;;;;;;6130577;23;20005;-77
2021/04/03 12:53:28;;;;;;;9.40;0.30;;;14.20;54.80;;;;;;6157394;23;20065;-76
2021/04/03 12:55:55;;;;;;;11.48;0.50;;;14.10;56.20;;;;;;6156891;23;20025;-77